createdAt,value
2016-09-01T00:00:04.187Z,999.3
2016-09-01T00:00:29.304Z,999.4
2016-09-01T00:00:54.568Z,999.3
2016-09-01T00:01:20.093Z,999.3
2016-09-01T00:01:44.232Z,999.3
2016-09-01T00:02:08.402Z,999.3
2016-09-01T00:02:32.705Z,999.3
2016-09-01T00:02:59.036Z,999.3
2016-09-01T00:03:23.164Z,999.3
2016-09-01T00:03:47.336Z,999.3
2016-09-01T00:04:11.515Z,999.3
2016-09-01T00:04:35.666Z,999.3
2016-09-01T00:04:59.825Z,999.3
2016-09-01T00:05:23.963Z,999.3
2016-09-01T00:05:48.125Z,999.3
2016-09-01T00:06:12.258Z,999.2
2016-09-01T00:06:36.411Z,999.3
2016-09-01T00:07:00.574Z,999.3
2016-09-01T00:07:24.716Z,999.3
2016-09-01T00:07:48.852Z,999.2
2016-09-01T00:08:13.007Z,999.2
2016-09-01T00:08:37.161Z,999.3
2016-09-01T00:09:01.410Z,999.3
2016-09-01T00:09:25.518Z,999.3
2016-09-01T00:09:49.730Z,999.3
2016-09-01T00:10:13.911Z,999.2
2016-09-01T00:10:38.056Z,999.3
2016-09-01T00:11:02.194Z,999.3
2016-09-01T00:11:26.352Z,999.3
2016-09-01T00:11:50.501Z,999.3
2016-09-01T00:12:14.654Z,999.3
2016-09-01T00:12:38.800Z,999.3
2016-09-01T00:13:02.975Z,999.3
2016-09-01T00:13:27.127Z,999.2
2016-09-01T00:13:51.275Z,999.3
2016-09-01T00:14:15.416Z,999.3
2016-09-01T00:14:39.554Z,999.3
2016-09-01T00:15:03.699Z,999.2
2016-09-01T00:15:28.776Z,999.3
2016-09-01T00:15:52.928Z,999.3
2016-09-01T00:16:17.081Z,999.3
2016-09-01T00:16:41.227Z,999.3
2016-09-01T00:17:05.374Z,999.3
2016-09-01T00:17:29.524Z,999.3
2016-09-01T00:17:53.654Z,999.3
2016-09-01T00:18:17.818Z,999.3
2016-09-01T00:18:41.956Z,999.3
2016-09-01T00:19:06.111Z,999.3
2016-09-01T00:19:30.270Z,999.3
2016-09-01T00:19:54.414Z,999.3
2016-09-01T00:20:18.578Z,999.3
2016-09-01T00:20:42.748Z,999.3
2016-09-01T00:21:06.892Z,999.3
2016-09-01T00:21:31.041Z,999.3
2016-09-01T00:21:55.174Z,999.3
2016-09-01T00:22:19.299Z,999.3
2016-09-01T00:22:43.448Z,999.2
2016-09-01T00:23:07.605Z,999.3
2016-09-01T00:23:31.739Z,999.2
2016-09-01T00:23:55.886Z,999.3
2016-09-01T00:24:20.030Z,999.3
2016-09-01T00:24:44.195Z,999.3
2016-09-01T00:25:08.331Z,999.2
2016-09-01T00:25:32.479Z,999.3
2016-09-01T00:25:56.637Z,999.2
2016-09-01T00:26:20.802Z,999.2
2016-09-01T00:26:44.957Z,999.3
2016-09-01T00:27:09.115Z,999.3
2016-09-01T00:27:33.248Z,999.3
2016-09-01T00:27:57.381Z,999.3
2016-09-01T00:28:21.530Z,999.3
2016-09-01T00:28:45.670Z,999.3
2016-09-01T00:29:09.803Z,999.2
2016-09-01T00:29:33.945Z,999.3
2016-09-01T00:29:58.110Z,999.3
2016-09-01T00:30:22.280Z,999.3
2016-09-01T00:30:46.415Z,999.3
2016-09-01T00:31:10.566Z,999.3
2016-09-01T00:31:34.743Z,999.3
2016-09-01T00:31:58.886Z,999.3
2016-09-01T00:32:23.053Z,999.3
2016-09-01T00:32:47.222Z,999.3
2016-09-01T00:33:11.380Z,999.3
2016-09-01T00:33:35.544Z,999.3
2016-09-01T00:33:59.710Z,999.3
2016-09-01T00:34:23.878Z,999.2
2016-09-01T00:34:48.016Z,999.2
2016-09-01T00:35:12.244Z,999.2
2016-09-01T00:35:36.414Z,999.2
2016-09-01T00:36:00.553Z,999.2
2016-09-01T00:36:24.724Z,999.2
2016-09-01T00:36:48.901Z,999.2
2016-09-01T00:37:13.066Z,999.2
2016-09-01T00:37:37.210Z,999.2
2016-09-01T00:38:01.380Z,999.3
2016-09-01T00:38:25.536Z,999.2
2016-09-01T00:38:49.701Z,999.2
2016-09-01T00:39:13.854Z,999.2
2016-09-01T00:39:38.025Z,999.2
2016-09-01T00:40:02.182Z,999.2
2016-09-01T00:40:26.326Z,999.2
2016-09-01T00:40:50.459Z,999.2
2016-09-01T00:41:14.641Z,999.2
2016-09-01T00:41:38.788Z,999.2
2016-09-01T00:42:02.913Z,999.2
2016-09-01T00:42:27.065Z,999.2
2016-09-01T00:42:51.218Z,999.2
2016-09-01T00:43:15.389Z,999.2
2016-09-01T00:43:39.523Z,999.2
2016-09-01T00:44:03.671Z,999.2
2016-09-01T00:44:27.844Z,999.2
2016-09-01T00:44:52.031Z,999.2
2016-09-01T00:45:16.182Z,999.2
2016-09-01T00:45:40.369Z,999.2
2016-09-01T00:46:04.555Z,999.2
2016-09-01T00:46:28.718Z,999.2
2016-09-01T00:46:52.899Z,999.2
2016-09-01T00:47:17.074Z,999.2
2016-09-01T00:47:41.216Z,999.2
2016-09-01T00:48:05.349Z,999.2
2016-09-01T00:48:29.528Z,999.2
2016-09-01T00:48:53.659Z,999.2
2016-09-01T00:49:17.820Z,999.1
2016-09-01T00:49:41.995Z,999.2
2016-09-01T00:50:06.164Z,999.2
2016-09-01T00:50:30.534Z,999.2
2016-09-01T00:50:54.677Z,999.2
2016-09-01T00:51:18.857Z,999.2
2016-09-01T00:51:43.000Z,999.2
2016-09-01T00:52:07.171Z,999.2
2016-09-01T00:52:31.338Z,999.2
2016-09-01T00:52:55.476Z,999.2
2016-09-01T00:53:19.645Z,999.2
2016-09-01T00:53:43.821Z,999.2
2016-09-01T00:54:07.980Z,999.2
2016-09-01T00:54:32.127Z,999.2
2016-09-01T00:54:56.299Z,999.2
2016-09-01T00:55:20.707Z,999.2
2016-09-01T00:55:44.872Z,999.2
2016-09-01T00:56:09.047Z,999.2
2016-09-01T00:56:33.206Z,999.1
2016-09-01T00:56:57.343Z,999.2
2016-09-01T00:57:21.491Z,999.2
2016-09-01T00:57:45.658Z,999.2
2016-09-01T00:58:09.807Z,999.2
2016-09-01T00:58:33.965Z,999.2
2016-09-01T00:58:58.122Z,999.2
2016-09-01T00:59:22.285Z,999.2
2016-09-01T00:59:46.426Z,999.2
2016-09-01T01:00:11.890Z,999.2
2016-09-01T01:00:36.047Z,999.2
2016-09-01T01:01:00.218Z,999.1
2016-09-01T01:01:24.378Z,999.1
2016-09-01T01:01:48.530Z,999.1
2016-09-01T01:02:12.717Z,999.1
2016-09-01T01:02:36.894Z,999.2
2016-09-01T01:03:01.023Z,999.1
2016-09-01T01:03:25.161Z,999.1
2016-09-01T01:03:49.312Z,999.1
2016-09-01T01:04:13.486Z,999.1
2016-09-01T01:04:37.646Z,999.1
2016-09-01T01:05:01.994Z,999.1
2016-09-01T01:05:26.175Z,999.1
2016-09-01T01:05:50.355Z,999.1
2016-09-01T01:06:14.489Z,999.1
2016-09-01T01:06:38.659Z,999.1
2016-09-01T01:07:02.821Z,999.1
2016-09-01T01:07:26.992Z,999.1
2016-09-01T01:07:51.140Z,999.2
2016-09-01T01:08:15.280Z,999.1
2016-09-01T01:08:39.443Z,999.2
2016-09-01T01:09:03.626Z,999.1
2016-09-01T01:09:27.772Z,999.1
2016-09-01T01:09:51.923Z,999.2
2016-09-01T01:10:16.232Z,999.1
2016-09-01T01:10:40.383Z,999.2
2016-09-01T01:11:04.536Z,999.1
2016-09-01T01:11:28.700Z,999.1
2016-09-01T01:11:52.853Z,999.2
2016-09-01T01:12:17.023Z,999.1
2016-09-01T01:12:41.184Z,999.2
2016-09-01T01:13:05.319Z,999.1
2016-09-01T01:13:29.453Z,999.1
2016-09-01T01:13:53.597Z,999.1
2016-09-01T01:14:17.761Z,999.1
2016-09-01T01:14:41.911Z,999.1
2016-09-01T01:15:06.052Z,999.1
2016-09-01T01:15:30.340Z,999.1
2016-09-01T01:15:54.486Z,999.2
2016-09-01T01:16:18.653Z,999.1
2016-09-01T01:16:42.797Z,999.2
2016-09-01T01:17:06.943Z,999.1
2016-09-01T01:17:31.123Z,999.2
2016-09-01T01:17:55.268Z,999.2
2016-09-01T01:18:19.426Z,999.1
2016-09-01T01:18:43.574Z,999.2
2016-09-01T01:19:07.739Z,999.2
2016-09-01T01:19:31.898Z,999.2
2016-09-01T01:19:56.043Z,999.2
2016-09-01T01:20:20.606Z,999.2
2016-09-01T01:20:44.774Z,999.2
2016-09-01T01:21:08.938Z,999.2
2016-09-01T01:21:33.090Z,999.1
2016-09-01T01:21:57.221Z,999.2
2016-09-01T01:22:21.370Z,999.2
2016-09-01T01:22:45.513Z,999.1
2016-09-01T01:23:09.661Z,999.2
2016-09-01T01:23:33.794Z,999.2
2016-09-01T01:23:57.927Z,999.1
2016-09-01T01:24:22.073Z,999.2
2016-09-01T01:24:46.233Z,999.1
2016-09-01T01:25:10.365Z,999.2
2016-09-01T01:25:34.511Z,999.1
2016-09-01T01:25:58.667Z,999.1
2016-09-01T01:26:22.839Z,999.1
2016-09-01T01:26:46.998Z,999.2
2016-09-01T01:27:11.140Z,999.1
2016-09-01T01:27:35.302Z,999.1
2016-09-01T01:27:59.454Z,999.1
2016-09-01T01:28:23.606Z,999.2
2016-09-01T01:28:47.749Z,999.1
2016-09-01T01:29:11.904Z,999.1
2016-09-01T01:29:36.028Z,999.1
2016-09-01T01:30:00.187Z,999.1
2016-09-01T01:30:24.348Z,999.1
2016-09-01T01:30:48.495Z,999.2
2016-09-01T01:31:12.626Z,999.1
2016-09-01T01:31:36.801Z,999.1
2016-09-01T01:32:00.255Z,999.2
2016-09-01T01:32:24.420Z,999.1
2016-09-01T01:32:48.558Z,999.1
2016-09-01T01:33:12.714Z,999.1
2016-09-01T01:33:36.857Z,999.1
2016-09-01T01:34:01.009Z,999.1
2016-09-01T01:34:25.157Z,999.1
2016-09-01T01:34:49.330Z,999.1
2016-09-01T01:35:13.508Z,999.1
2016-09-01T01:35:37.664Z,999.1
2016-09-01T01:36:01.815Z,999.1
2016-09-01T01:36:25.981Z,999.1
2016-09-01T01:36:50.174Z,999.1
2016-09-01T01:37:14.316Z,999.1
2016-09-01T01:37:38.468Z,999.1
2016-09-01T01:38:02.609Z,999.1
2016-09-01T01:38:26.787Z,999.1
2016-09-01T01:38:50.936Z,999.1
2016-09-01T01:39:15.070Z,999.1
2016-09-01T01:39:39.210Z,999.1
2016-09-01T01:40:03.368Z,999.1
2016-09-01T01:40:27.670Z,999.1
2016-09-01T01:40:51.850Z,999.1
2016-09-01T01:41:16.005Z,999.1
2016-09-01T01:41:40.179Z,999.1
2016-09-01T01:42:04.340Z,999.1
2016-09-01T01:42:28.498Z,999.1
2016-09-01T01:42:52.667Z,999
2016-09-01T01:43:16.832Z,999
2016-09-01T01:43:40.991Z,999
2016-09-01T01:44:05.145Z,999.1
2016-09-01T01:44:29.296Z,999
2016-09-01T01:44:53.421Z,999.1
2016-09-01T01:45:17.561Z,999.1
2016-09-01T01:45:42.509Z,999.1
2016-09-01T01:46:06.667Z,999
2016-09-01T01:46:30.841Z,999.1
2016-09-01T01:46:54.983Z,999
2016-09-01T01:47:19.155Z,999
2016-09-01T01:47:43.320Z,999
2016-09-01T01:48:07.472Z,999
2016-09-01T01:48:31.606Z,999
2016-09-01T01:48:55.767Z,999
2016-09-01T01:49:19.923Z,999
2016-09-01T01:49:44.055Z,999
2016-09-01T01:50:08.184Z,999.1
2016-09-01T01:50:32.513Z,999
2016-09-01T01:50:56.677Z,999.1
2016-09-01T01:51:20.819Z,999.1
2016-09-01T01:51:44.959Z,999
2016-09-01T01:52:09.119Z,999
2016-09-01T01:52:33.265Z,999
2016-09-01T01:52:57.450Z,999
2016-09-01T01:53:21.578Z,999
2016-09-01T01:53:45.743Z,999
2016-09-01T01:54:09.894Z,999
2016-09-01T01:54:34.086Z,999.1
2016-09-01T01:54:58.220Z,999.1
2016-09-01T01:55:22.382Z,999.1
2016-09-01T01:55:46.516Z,999.1
2016-09-01T01:56:10.665Z,999
2016-09-01T01:56:34.818Z,999.1
2016-09-01T01:56:58.987Z,999
2016-09-01T01:57:23.166Z,999
2016-09-01T01:57:47.298Z,999
2016-09-01T01:58:11.448Z,999
2016-09-01T01:58:35.625Z,999
2016-09-01T01:58:59.794Z,999
2016-09-01T01:59:23.962Z,999
2016-09-01T01:59:48.108Z,998.9
2016-09-01T02:00:12.274Z,999
2016-09-01T02:00:36.435Z,999
2016-09-01T02:01:00.570Z,999
2016-09-01T02:01:24.727Z,999
2016-09-01T02:01:48.909Z,998.9
2016-09-01T02:02:13.062Z,999
2016-09-01T02:02:37.209Z,999
2016-09-01T02:03:01.405Z,999
2016-09-01T02:03:25.561Z,998.9
2016-09-01T02:03:49.730Z,998.9
2016-09-01T02:04:13.874Z,999
2016-09-01T02:04:38.021Z,999
2016-09-01T02:05:02.217Z,999
2016-09-01T02:05:26.396Z,998.9
2016-09-01T02:05:50.545Z,999
2016-09-01T02:06:14.679Z,998.9
2016-09-01T02:06:38.841Z,998.9
2016-09-01T02:07:03.001Z,999
2016-09-01T02:07:27.183Z,999
2016-09-01T02:07:51.349Z,998.9
2016-09-01T02:08:15.504Z,999
2016-09-01T02:08:39.638Z,998.9
2016-09-01T02:09:03.799Z,998.9
2016-09-01T02:09:27.951Z,998.9
2016-09-01T02:09:52.126Z,998.9
2016-09-01T02:10:16.347Z,998.9
2016-09-01T02:10:40.722Z,998.9
2016-09-01T02:11:04.886Z,998.9
2016-09-01T02:11:29.103Z,998.9
2016-09-01T02:11:53.265Z,998.9
2016-09-01T02:12:19.365Z,998.9
2016-09-01T02:12:43.515Z,998.9
2016-09-01T02:13:07.648Z,998.9
2016-09-01T02:13:31.823Z,998.9
2016-09-01T02:13:56.778Z,998.9
2016-09-01T02:14:20.920Z,998.9
2016-09-01T02:14:45.083Z,998.9
2016-09-01T02:15:09.233Z,999
2016-09-01T02:15:33.376Z,998.9
2016-09-01T02:15:57.529Z,998.9
2016-09-01T02:16:21.693Z,998.9
2016-09-01T02:16:45.837Z,998.9
2016-09-01T02:17:09.971Z,999
2016-09-01T02:17:34.149Z,999
2016-09-01T02:17:58.306Z,998.9
2016-09-01T02:18:22.458Z,999
2016-09-01T02:18:46.616Z,999
2016-09-01T02:19:10.772Z,999
2016-09-01T02:19:34.928Z,999
2016-09-01T02:19:59.087Z,999
2016-09-01T02:20:23.247Z,999
2016-09-01T02:20:47.400Z,998.9
2016-09-01T02:21:11.561Z,998.9
2016-09-01T02:21:35.725Z,998.9
2016-09-01T02:21:59.888Z,998.9
2016-09-01T02:22:24.004Z,999
2016-09-01T02:22:48.156Z,999
2016-09-01T02:23:12.279Z,998.9
2016-09-01T02:23:36.419Z,999
2016-09-01T02:24:00.582Z,998.9
2016-09-01T02:24:24.746Z,998.9
2016-09-01T02:24:48.873Z,998.9
2016-09-01T02:25:13.018Z,998.9
2016-09-01T02:25:37.178Z,999
2016-09-01T02:26:01.333Z,998.9
2016-09-01T02:26:25.473Z,998.9
2016-09-01T02:26:49.650Z,998.9
2016-09-01T02:27:13.799Z,998.9
2016-09-01T02:27:37.948Z,998.9
2016-09-01T02:28:02.097Z,998.9
2016-09-01T02:28:26.265Z,998.9
2016-09-01T02:28:50.433Z,998.9
2016-09-01T02:29:14.600Z,998.9
2016-09-01T02:29:38.766Z,998.9
2016-09-01T02:30:02.900Z,998.9
2016-09-01T02:30:27.031Z,998.9
2016-09-01T02:30:51.185Z,998.9
2016-09-01T02:31:15.322Z,998.9
2016-09-01T02:31:39.477Z,998.9
2016-09-01T02:32:03.627Z,998.9
2016-09-01T02:32:27.779Z,998.9
2016-09-01T02:32:51.909Z,998.9
2016-09-01T02:33:16.048Z,998.9
2016-09-01T02:33:40.195Z,998.9
2016-09-01T02:34:04.345Z,998.9
2016-09-01T02:34:28.488Z,998.9
2016-09-01T02:34:52.711Z,998.9
2016-09-01T02:35:16.922Z,998.9
2016-09-01T02:35:41.099Z,998.9
2016-09-01T02:36:05.237Z,998.9
2016-09-01T02:36:29.380Z,998.9
2016-09-01T02:36:53.552Z,998.9
2016-09-01T02:37:17.693Z,998.9
2016-09-01T02:37:41.832Z,998.9
2016-09-01T02:38:05.995Z,998.9
2016-09-01T02:38:30.164Z,998.9
2016-09-01T02:38:54.310Z,998.9
2016-09-01T02:39:18.442Z,998.9
2016-09-01T02:39:42.580Z,998.9
2016-09-01T02:40:06.738Z,998.9
2016-09-01T02:40:31.011Z,998.9
2016-09-01T02:40:55.136Z,998.9
2016-09-01T02:41:19.279Z,998.9
2016-09-01T02:41:43.444Z,998.9
2016-09-01T02:42:07.583Z,998.9
2016-09-01T02:42:31.726Z,998.9
2016-09-01T02:42:55.891Z,998.9
2016-09-01T02:43:20.041Z,998.9
2016-09-01T02:43:44.185Z,998.9
2016-09-01T02:44:08.333Z,998.9
2016-09-01T02:44:32.510Z,998.9
2016-09-01T02:44:56.680Z,998.9
2016-09-01T02:45:20.838Z,998.9
2016-09-01T02:45:44.991Z,998.9
2016-09-01T02:46:09.127Z,998.9
2016-09-01T02:46:33.274Z,998.9
2016-09-01T02:46:57.412Z,998.9
2016-09-01T02:47:21.573Z,998.9
2016-09-01T02:47:45.728Z,998.9
2016-09-01T02:48:09.870Z,998.9
2016-09-01T02:48:34.021Z,998.9
2016-09-01T02:48:58.174Z,998.9
2016-09-01T02:49:22.327Z,998.9
2016-09-01T02:49:46.495Z,998.9
2016-09-01T02:50:10.620Z,998.9
2016-09-01T02:50:34.758Z,998.9
2016-09-01T02:50:58.897Z,998.9
2016-09-01T02:51:23.050Z,998.9
2016-09-01T02:51:47.200Z,998.9
2016-09-01T02:52:11.348Z,998.9
2016-09-01T02:52:35.493Z,998.9
2016-09-01T02:52:59.658Z,998.9
2016-09-01T02:53:23.799Z,998.9
2016-09-01T02:53:47.937Z,998.9
2016-09-01T02:54:12.118Z,998.9
2016-09-01T02:54:36.264Z,998.9
2016-09-01T02:55:00.454Z,998.9
2016-09-01T02:55:24.902Z,998.9
2016-09-01T02:55:49.063Z,998.9
2016-09-01T02:56:13.210Z,998.9
2016-09-01T02:56:37.372Z,998.9
2016-09-01T02:57:01.537Z,998.9
2016-09-01T02:57:25.711Z,998.9
2016-09-01T02:57:49.847Z,998.9
2016-09-01T02:58:14.004Z,998.9
2016-09-01T02:58:38.144Z,998.9
2016-09-01T02:59:02.307Z,998.9
2016-09-01T02:59:26.460Z,999
2016-09-01T02:59:50.622Z,998.9
2016-09-01T03:00:14.791Z,998.9
2016-09-01T03:00:38.946Z,998.9
2016-09-01T03:01:03.088Z,998.9
2016-09-01T03:01:27.231Z,998.9
2016-09-01T03:01:51.367Z,998.9
2016-09-01T03:02:15.514Z,998.9
2016-09-01T03:02:39.675Z,998.9
2016-09-01T03:03:03.809Z,999
2016-09-01T03:03:27.935Z,999
2016-09-01T03:03:52.089Z,998.9
2016-09-01T03:04:16.235Z,999
2016-09-01T03:04:40.418Z,999
2016-09-01T03:05:04.581Z,999
2016-09-01T03:05:28.707Z,998.9
2016-09-01T03:05:52.835Z,998.9
2016-09-01T03:06:16.998Z,999
2016-09-01T03:06:41.214Z,999
2016-09-01T03:07:05.358Z,999
2016-09-01T03:07:29.503Z,999
2016-09-01T03:07:53.675Z,999
2016-09-01T03:08:17.832Z,999
2016-09-01T03:08:41.959Z,999
2016-09-01T03:09:06.114Z,999
2016-09-01T03:09:30.285Z,999
2016-09-01T03:09:54.442Z,999
2016-09-01T03:10:18.579Z,999
2016-09-01T03:10:42.722Z,999
2016-09-01T03:11:06.870Z,999
2016-09-01T03:11:31.034Z,999
2016-09-01T03:11:55.172Z,998.9
2016-09-01T03:12:19.323Z,999
2016-09-01T03:12:43.488Z,999
2016-09-01T03:13:07.627Z,999
2016-09-01T03:13:31.788Z,998.9
2016-09-01T03:13:55.945Z,998.9
2016-09-01T03:14:20.093Z,999
2016-09-01T03:14:44.243Z,998.9
2016-09-01T03:15:08.384Z,999
2016-09-01T03:15:32.532Z,999
2016-09-01T03:15:56.678Z,998.9
2016-09-01T03:16:20.838Z,998.9
2016-09-01T03:16:44.964Z,999
2016-09-01T03:17:09.127Z,998.9
2016-09-01T03:17:33.290Z,998.9
2016-09-01T03:17:57.419Z,998.9
2016-09-01T03:18:21.587Z,998.9
2016-09-01T03:18:45.756Z,998.9
2016-09-01T03:19:09.912Z,998.9
2016-09-01T03:19:34.062Z,998.9
2016-09-01T03:19:58.214Z,998.9
2016-09-01T03:20:22.516Z,998.9
2016-09-01T03:20:46.660Z,998.9
2016-09-01T03:21:10.792Z,998.9
2016-09-01T03:21:34.974Z,998.9
2016-09-01T03:21:59.143Z,998.9
2016-09-01T03:22:23.291Z,998.9
2016-09-01T03:22:47.406Z,998.9
2016-09-01T03:23:11.609Z,998.9
2016-09-01T03:23:35.744Z,999
2016-09-01T03:23:59.880Z,999
2016-09-01T03:24:24.050Z,999
2016-09-01T03:24:48.182Z,999
2016-09-01T03:25:12.347Z,999
2016-09-01T03:25:36.474Z,999
2016-09-01T03:26:00.646Z,999
2016-09-01T03:26:24.774Z,999
2016-09-01T03:26:48.912Z,999
2016-09-01T03:27:13.038Z,999
2016-09-01T03:27:37.200Z,999
2016-09-01T03:28:01.343Z,999
2016-09-01T03:28:25.522Z,999
2016-09-01T03:28:49.659Z,999
2016-09-01T03:29:13.807Z,999
2016-09-01T03:29:37.977Z,999
2016-09-01T03:30:02.803Z,998.9
2016-09-01T03:30:27.094Z,999
2016-09-01T03:30:51.256Z,999
2016-09-01T03:31:15.392Z,999
2016-09-01T03:31:39.528Z,999
2016-09-01T03:32:03.679Z,999
2016-09-01T03:32:27.828Z,999
2016-09-01T03:32:51.978Z,999
2016-09-01T03:33:16.128Z,998.9
2016-09-01T03:33:40.269Z,999
2016-09-01T03:34:04.420Z,998.9
2016-09-01T03:34:28.566Z,999
2016-09-01T03:34:52.706Z,999
2016-09-01T03:35:16.896Z,998.9
2016-09-01T03:35:41.036Z,999
2016-09-01T03:36:05.876Z,999
2016-09-01T03:36:30.005Z,999
2016-09-01T03:36:54.186Z,999
2016-09-01T03:37:18.367Z,999
2016-09-01T03:37:42.497Z,999
2016-09-01T03:38:06.664Z,998.9
2016-09-01T03:38:30.852Z,998.9
2016-09-01T03:38:54.977Z,999
2016-09-01T03:39:19.114Z,999
2016-09-01T03:39:43.271Z,999
2016-09-01T03:40:07.461Z,999
2016-09-01T03:40:31.596Z,998.9
2016-09-01T03:40:55.717Z,999
2016-09-01T03:41:19.875Z,998.9
2016-09-01T03:41:44.047Z,999
2016-09-01T03:42:08.201Z,999
2016-09-01T03:42:32.363Z,998.9
2016-09-01T03:42:56.500Z,999
2016-09-01T03:43:20.646Z,999
2016-09-01T03:43:44.780Z,998.9
2016-09-01T03:44:08.959Z,998.9
2016-09-01T03:44:33.119Z,998.9
2016-09-01T03:44:57.284Z,998.9
2016-09-01T03:45:21.439Z,998.9
2016-09-01T03:45:45.739Z,998.9
2016-09-01T03:46:09.905Z,998.9
2016-09-01T03:46:34.051Z,998.9
2016-09-01T03:46:58.247Z,998.9
2016-09-01T03:47:22.410Z,998.9
2016-09-01T03:47:46.583Z,998.9
2016-09-01T03:48:10.737Z,998.9
2016-09-01T03:48:34.905Z,998.9
2016-09-01T03:48:59.050Z,998.9
2016-09-01T03:49:23.203Z,998.9
2016-09-01T03:49:47.349Z,998.9
2016-09-01T03:50:11.485Z,998.9
2016-09-01T03:50:35.650Z,998.9
2016-09-01T03:50:59.779Z,998.9
2016-09-01T03:51:23.924Z,998.9
2016-09-01T03:51:48.091Z,998.9
2016-09-01T03:52:12.245Z,998.9
2016-09-01T03:52:36.380Z,998.9
2016-09-01T03:53:00.536Z,998.9
2016-09-01T03:53:25.556Z,998.9
2016-09-01T03:53:49.699Z,998.9
2016-09-01T03:54:13.832Z,998.9
2016-09-01T03:54:37.996Z,998.9
2016-09-01T03:55:02.206Z,998.9
2016-09-01T03:55:26.367Z,998.9
2016-09-01T03:55:50.518Z,998.9
2016-09-01T03:56:14.668Z,998.9
2016-09-01T03:56:38.828Z,998.9
2016-09-01T03:57:02.961Z,998.9
2016-09-01T03:57:27.109Z,998.9
2016-09-01T03:57:51.250Z,998.9
2016-09-01T03:58:15.409Z,998.9
2016-09-01T03:58:39.548Z,998.9
2016-09-01T03:59:03.724Z,998.9
2016-09-01T03:59:27.896Z,998.9
2016-09-01T03:59:52.068Z,998.9
2016-09-01T04:00:16.199Z,998.9
2016-09-01T04:00:40.370Z,998.9
2016-09-01T04:01:04.523Z,998.9
2016-09-01T04:01:28.692Z,998.9
2016-09-01T04:01:52.861Z,998.9
2016-09-01T04:02:17.022Z,998.9
2016-09-01T04:02:41.160Z,998.9
2016-09-01T04:03:05.325Z,998.9
2016-09-01T04:03:29.463Z,998.9
2016-09-01T04:03:53.636Z,998.9
2016-09-01T04:04:17.787Z,998.9
2016-09-01T04:04:41.939Z,998.9
2016-09-01T04:05:06.101Z,998.9
2016-09-01T04:05:30.402Z,998.9
2016-09-01T04:05:54.557Z,998.9
2016-09-01T04:06:18.693Z,998.9
2016-09-01T04:06:42.869Z,998.9
2016-09-01T04:07:07.024Z,998.9
2016-09-01T04:07:31.160Z,998.9
2016-09-01T04:07:55.291Z,998.9
2016-09-01T04:08:19.446Z,998.9
2016-09-01T04:08:43.621Z,998.9
2016-09-01T04:09:07.766Z,998.9
2016-09-01T04:09:31.924Z,998.9
2016-09-01T04:09:56.087Z,998.9
2016-09-01T04:10:20.265Z,998.9
2016-09-01T04:10:44.396Z,998.9
2016-09-01T04:11:08.560Z,998.9
2016-09-01T04:11:32.733Z,998.9
2016-09-01T04:11:56.889Z,998.9
2016-09-01T04:12:21.206Z,998.9
2016-09-01T04:12:45.364Z,998.9
2016-09-01T04:13:09.527Z,998.9
2016-09-01T04:13:33.680Z,998.9
2016-09-01T04:13:57.836Z,998.9
2016-09-01T04:14:21.985Z,998.9
2016-09-01T04:14:46.153Z,998.9
2016-09-01T04:15:10.318Z,998.9
2016-09-01T04:15:34.462Z,998.9
2016-09-01T04:15:58.617Z,998.9
2016-09-01T04:16:22.782Z,998.9
2016-09-01T04:16:46.913Z,998.9
2016-09-01T04:17:11.074Z,998.9
2016-09-01T04:17:35.229Z,998.9
2016-09-01T04:17:59.379Z,998.9
2016-09-01T04:18:23.513Z,998.9
2016-09-01T04:18:47.661Z,998.9
2016-09-01T04:19:11.831Z,998.9
2016-09-01T04:19:35.985Z,999
2016-09-01T04:20:00.137Z,999
2016-09-01T04:20:24.294Z,999
2016-09-01T04:20:48.450Z,999
2016-09-01T04:21:12.589Z,999.1
2016-09-01T04:21:36.744Z,999
2016-09-01T04:22:00.885Z,999.1
2016-09-01T04:22:25.051Z,999.1
2016-09-01T04:22:49.172Z,999.1
2016-09-01T04:23:13.377Z,999.1
2016-09-01T04:23:37.543Z,999.1
2016-09-01T04:24:01.705Z,999.1
2016-09-01T04:24:25.861Z,999.2
2016-09-01T04:24:50.031Z,999.1
2016-09-01T04:25:14.199Z,999.1
2016-09-01T04:25:38.349Z,999.1
2016-09-01T04:26:02.525Z,999.1
2016-09-01T04:26:26.691Z,999.1
2016-09-01T04:26:50.836Z,999.1
2016-09-01T04:27:14.961Z,999.1
2016-09-01T04:27:39.109Z,999.1
2016-09-01T04:28:03.268Z,999.1
2016-09-01T04:28:27.427Z,999.1
2016-09-01T04:28:51.565Z,999.1
2016-09-01T04:29:15.712Z,999.1
2016-09-01T04:29:39.887Z,999.1
2016-09-01T04:30:04.063Z,999.1
2016-09-01T04:30:28.261Z,999.1
2016-09-01T04:30:52.411Z,999.1
2016-09-01T04:31:16.575Z,999.1
2016-09-01T04:31:40.727Z,999.1
2016-09-01T04:32:04.900Z,999.2
2016-09-01T04:32:29.055Z,999.1
2016-09-01T04:32:53.187Z,999.1
2016-09-01T04:33:17.350Z,999.2
2016-09-01T04:33:41.497Z,999.1
2016-09-01T04:34:05.675Z,999.2
2016-09-01T04:34:29.838Z,999.2
2016-09-01T04:34:53.983Z,999.2
2016-09-01T04:35:18.282Z,999.2
2016-09-01T04:35:42.452Z,999.2
2016-09-01T04:36:06.594Z,999.2
2016-09-01T04:36:30.771Z,999.2
2016-09-01T04:36:54.943Z,999.1
2016-09-01T04:37:19.066Z,999.2
2016-09-01T04:37:43.199Z,999.2
2016-09-01T04:38:07.363Z,999.2
2016-09-01T04:38:31.640Z,999.2
2016-09-01T04:38:57.259Z,999.2
2016-09-01T04:39:21.410Z,999.2
2016-09-01T04:39:45.572Z,999.2
2016-09-01T04:40:10.009Z,999.2
2016-09-01T04:40:34.504Z,999.2
2016-09-01T04:40:58.646Z,999.2
2016-09-01T04:41:22.806Z,999.2
2016-09-01T04:41:46.964Z,999.2
2016-09-01T04:42:11.129Z,999.2
2016-09-01T04:42:35.271Z,999.2
2016-09-01T04:42:59.396Z,999.2
2016-09-01T04:43:23.525Z,999.3
2016-09-01T04:43:47.753Z,999.2
2016-09-01T04:44:11.893Z,999.3
2016-09-01T04:44:36.032Z,999.2
2016-09-01T04:45:00.204Z,999.3
2016-09-01T04:45:24.445Z,999.2
2016-09-01T04:45:48.610Z,999.2
2016-09-01T04:46:12.777Z,999.2
2016-09-01T04:46:36.926Z,999.3
2016-09-01T04:47:01.072Z,999.3
2016-09-01T04:47:25.212Z,999.3
2016-09-01T04:47:49.364Z,999.3
2016-09-01T04:48:13.530Z,999.2
2016-09-01T04:48:37.678Z,999.3
2016-09-01T04:49:01.809Z,999.3
2016-09-01T04:49:25.963Z,999.3
2016-09-01T04:49:50.152Z,999.3
2016-09-01T04:50:14.404Z,999.3
2016-09-01T04:50:38.688Z,999.2
2016-09-01T04:51:02.857Z,999.3
2016-09-01T04:51:27.014Z,999.3
2016-09-01T04:51:51.207Z,999.3
2016-09-01T04:52:15.344Z,999.3
2016-09-01T04:52:39.476Z,999.3
2016-09-01T04:53:03.643Z,999.3
2016-09-01T04:53:27.795Z,999.3
2016-09-01T04:53:51.964Z,999.3
2016-09-01T04:54:16.092Z,999.3
2016-09-01T04:54:40.248Z,999.3
2016-09-01T04:55:04.405Z,999.4
2016-09-01T04:55:28.623Z,999.4
2016-09-01T04:55:52.783Z,999.3
2016-09-01T04:56:16.921Z,999.4
2016-09-01T04:56:41.064Z,999.4
2016-09-01T04:57:05.204Z,999.4
2016-09-01T04:57:29.374Z,999.4
2016-09-01T04:57:53.535Z,999.4
2016-09-01T04:58:17.685Z,999.4
2016-09-01T04:58:41.854Z,999.4
2016-09-01T04:59:06.013Z,999.4
2016-09-01T04:59:30.140Z,999.4
2016-09-01T04:59:54.333Z,999.4
2016-09-01T05:00:18.499Z,999.4
2016-09-01T05:00:42.636Z,999.4
2016-09-01T05:01:06.785Z,999.4
2016-09-01T05:01:30.937Z,999.4
2016-09-01T05:01:55.101Z,999.5
2016-09-01T05:02:19.247Z,999.5
2016-09-01T05:02:43.379Z,999.5
2016-09-01T05:03:07.533Z,999.5
2016-09-01T05:03:31.660Z,999.5
2016-09-01T05:03:56.254Z,999.5
2016-09-01T05:04:20.413Z,999.5
2016-09-01T05:04:44.598Z,999.5
2016-09-01T05:05:08.764Z,999.5
2016-09-01T05:05:32.903Z,999.5
2016-09-01T05:05:57.056Z,999.5
2016-09-01T05:06:21.227Z,999.4
2016-09-01T05:06:45.389Z,999.5
2016-09-01T05:07:09.756Z,999.5
2016-09-01T05:07:33.909Z,999.5
2016-09-01T05:07:58.060Z,999.5
2016-09-01T05:08:22.212Z,999.5
2016-09-01T05:08:47.085Z,999.5
2016-09-01T05:09:12.349Z,999.4
2016-09-01T05:09:36.548Z,999.5
2016-09-01T05:10:00.927Z,999.5
2016-09-01T05:10:25.700Z,999.5
2016-09-01T05:10:49.865Z,999.5
2016-09-01T05:11:14.030Z,999.5
2016-09-01T05:11:38.171Z,999.6
2016-09-01T05:12:02.317Z,999.5
2016-09-01T05:12:26.434Z,999.6
2016-09-01T05:12:50.601Z,999.6
2016-09-01T05:13:14.757Z,999.6
2016-09-01T05:13:38.907Z,999.6
2016-09-01T05:14:03.082Z,999.6
2016-09-01T05:14:27.210Z,999.7
2016-09-01T05:14:51.424Z,999.6